sensor_id;sensor_type;location;lat;lon;timestamp;temperature;humidity
12811;DHT22;6470;47.654;7.896;2023-04-24T00:00:57;10.80;99.90
12811;DHT22;6470;47.654;7.896;2023-04-24T00:03:24;9.90;99.90
12811;DHT22;6470;47.654;7.896;2023-04-24T00:08:17;10.70;99.90
12811;DHT22;6470;47.654;7.896;2023-04-24T00:10:43;9.60;99.90
12811;DHT22;6470;47.654;7.896;2023-04-24T00:15:35;10.50;99.90
12811;DHT22;6470;47.654;7.896;2023-04-24T00:18:01;12.10;99.90
12811;DHT22;6470;47.654;7.896;2023-04-24T00:20:28;10.40;99.90
12811;DHT22;6470;47.654;7.896;2023-04-24T00:22:55;9.80;99.90
12811;DHT22;6470;47.654;7.896;2023-04-24T00:25:21;10.30;99.90
12811;DHT22;6470;47.654;7.896;2023-04-24T00:27:46;9.70;99.90
12811;DHT22;6470;47.654;7.896;2023-04-24T00:30:12;10.70;99.90
12811;DHT22;6470;47.654;7.896;2023-04-24T00:32:38;12.50;99.90
12811;DHT22;6470;47.654;7.896;2023-04-24T00:35:05;11.70;99.90
12811;DHT22;6470;47.654;7.896;2023-04-24T00:37:31;12.10;99.90
12811;DHT22;6470;47.654;7.896;2023-04-24T00:39:57;9.90;99.90
12811;DHT22;6470;47.654;7.896;2023-04-24T00:42:23;9.90;99.90
12811;DHT22;6470;47.654;7.896;2023-04-24T00:44:48;10.00;99.90
12811;DHT22;6470;47.654;7.896;2023-04-24T00:47:14;12.00;99.90
12811;DHT22;6470;47.654;7.896;2023-04-24T00:52:06;9.50;99.90
12811;DHT22;6470;47.654;7.896;2023-04-24T00:54:34;11.60;99.90
12811;DHT22;6470;47.654;7.896;2023-04-24T00:57:01;9.90;99.90
12811;DHT22;6470;47.654;7.896;2023-04-24T00:59:27;10.50;99.90
12811;DHT22;6470;47.654;7.896;2023-04-24T01:01:53;10.40;99.90
12811;DHT22;6470;47.654;7.896;2023-04-24T01:04:20;11.70;99.90
12811;DHT22;6470;47.654;7.896;2023-04-24T01:06:46;11.90;99.90
12811;DHT22;6470;47.654;7.896;2023-04-24T01:09:12;10.80;99.90
12811;DHT22;6470;47.654;7.896;2023-04-24T01:11:40;12.20;99.90
12811;DHT22;6470;47.654;7.896;2023-04-24T01:14:07;10.70;99.90
12811;DHT22;6470;47.654;7.896;2023-04-24T01:16:32;10.00;99.90
12811;DHT22;6470;47.654;7.896;2023-04-24T01:18:58;12.30;99.90
12811;DHT22;6470;47.654;7.896;2023-04-24T01:21:26;11.70;99.90
12811;DHT22;6470;47.654;7.896;2023-04-24T01:23:55;11.60;99.90
12811;DHT22;6470;47.654;7.896;2023-04-24T01:26:22;11.60;99.90
12811;DHT22;6470;47.654;7.896;2023-04-24T01:28:48;11.40;99.90
12811;DHT22;6470;47.654;7.896;2023-04-24T01:31:15;10.00;99.90
12811;DHT22;6470;47.654;7.896;2023-04-24T01:33:41;12.20;99.90
12811;DHT22;6470;47.654;7.896;2023-04-24T01:36:10;12.00;99.90
12811;DHT22;6470;47.654;7.896;2023-04-24T01:38:36;12.30;99.90
12811;DHT22;6470;47.654;7.896;2023-04-24T01:41:02;10.30;99.90
12811;DHT22;6470;47.654;7.896;2023-04-24T01:43:28;12.10;99.90
12811;DHT22;6470;47.654;7.896;2023-04-24T01:45:54;12.40;99.90
12811;DHT22;6470;47.654;7.896;2023-04-24T01:48:20;12.30;99.90
12811;DHT22;6470;47.654;7.896;2023-04-24T01:50:45;10.00;99.90
12811;DHT22;6470;47.654;7.896;2023-04-24T01:55:37;12.10;99.90
12811;DHT22;6470;47.654;7.896;2023-04-24T01:58:03;11.90;99.90
12811;DHT22;6470;47.654;7.896;2023-04-24T02:00:29;11.80;99.90
12811;DHT22;6470;47.654;7.896;2023-04-24T02:02:55;12.00;99.90
12811;DHT22;6470;47.654;7.896;2023-04-24T02:05:21;11.60;99.90
12811;DHT22;6470;47.654;7.896;2023-04-24T02:07:46;11.90;99.90
12811;DHT22;6470;47.654;7.896;2023-04-24T02:10:14;12.50;99.90
12811;DHT22;6470;47.654;7.896;2023-04-24T02:12:42;9.90;99.90
12811;DHT22;6470;47.654;7.896;2023-04-24T02:15:08;12.30;99.90
12811;DHT22;6470;47.654;7.896;2023-04-24T02:17:34;12.30;99.90
12811;DHT22;6470;47.654;7.896;2023-04-24T02:20:00;12.20;99.90
12811;DHT22;6470;47.654;7.896;2023-04-24T02:24:52;12.00;99.90
12811;DHT22;6470;47.654;7.896;2023-04-24T02:27:17;12.30;99.90
12811;DHT22;6470;47.654;7.896;2023-04-24T02:32:10;11.40;99.90
12811;DHT22;6470;47.654;7.896;2023-04-24T02:34:37;9.70;99.90
12811;DHT22;6470;47.654;7.896;2023-04-24T02:37:03;11.90;99.90
12811;DHT22;6470;47.654;7.896;2023-04-24T02:39:29;11.60;99.90
12811;DHT22;6470;47.654;7.896;2023-04-24T02:41:55;12.50;99.90
12811;DHT22;6470;47.654;7.896;2023-04-24T02:44:20;12.00;99.90
12811;DHT22;6470;47.654;7.896;2023-04-24T02:46:47;12.50;99.90
12811;DHT22;6470;47.654;7.896;2023-04-24T02:49:12;12.40;99.90
12811;DHT22;6470;47.654;7.896;2023-04-24T02:51:38;12.60;99.90
12811;DHT22;6470;47.654;7.896;2023-04-24T02:54:07;12.30;99.90
12811;DHT22;6470;47.654;7.896;2023-04-24T02:56:34;12.10;99.90
12811;DHT22;6470;47.654;7.896;2023-04-24T02:59:00;10.80;99.90
12811;DHT22;6470;47.654;7.896;2023-04-24T03:01:25;9.50;99.90
12811;DHT22;6470;47.654;7.896;2023-04-24T03:03:51;12.20;99.90
12811;DHT22;6470;47.654;7.896;2023-04-24T03:06:17;12.20;99.90
12811;DHT22;6470;47.654;7.896;2023-04-24T03:08:42;11.40;99.90
12811;DHT22;6470;47.654;7.896;2023-04-24T03:11:08;10.90;99.90
12811;DHT22;6470;47.654;7.896;2023-04-24T03:13:34;9.80;99.90
12811;DHT22;6470;47.654;7.896;2023-04-24T03:18:26;10.20;99.90
12811;DHT22;6470;47.654;7.896;2023-04-24T03:20:51;10.00;99.90
12811;DHT22;6470;47.654;7.896;2023-04-24T03:23:17;10.60;99.90
12811;DHT22;6470;47.654;7.896;2023-04-24T03:28:09;10.20;99.90
12811;DHT22;6470;47.654;7.896;2023-04-24T03:30:35;10.10;99.90
12811;DHT22;6470;47.654;7.896;2023-04-24T03:33:00;10.50;99.90
12811;DHT22;6470;47.654;7.896;2023-04-24T03:35:26;10.50;99.90
12811;DHT22;6470;47.654;7.896;2023-04-24T03:37:52;10.80;99.90
12811;DHT22;6470;47.654;7.896;2023-04-24T03:42:43;10.60;99.90
12811;DHT22;6470;47.654;7.896;2023-04-24T03:45:09;10.30;99.90
12811;DHT22;6470;47.654;7.896;2023-04-24T03:47:35;10.30;99.90
12811;DHT22;6470;47.654;7.896;2023-04-24T03:50:01;10.30;99.90
12811;DHT22;6470;47.654;7.896;2023-04-24T03:52:27;10.40;99.90
12811;DHT22;6470;47.654;7.896;2023-04-24T03:54:52;10.30;99.90
12811;DHT22;6470;47.654;7.896;2023-04-24T03:57:18;10.30;99.90
12811;DHT22;6470;47.654;7.896;2023-04-24T03:59:44;9.90;99.90
12811;DHT22;6470;47.654;7.896;2023-04-24T04:02:10;9.50;99.90
12811;DHT22;6470;47.654;7.896;2023-04-24T04:04:35;10.40;99.90
12811;DHT22;6470;47.654;7.896;2023-04-24T04:07:01;10.30;99.90
12811;DHT22;6470;47.654;7.896;2023-04-24T04:09:28;10.70;99.90
12811;DHT22;6470;47.654;7.896;2023-04-24T04:11:54;10.20;99.90
12811;DHT22;6470;47.654;7.896;2023-04-24T04:14:21;10.20;99.90
12811;DHT22;6470;47.654;7.896;2023-04-24T04:16:47;9.30;99.90
12811;DHT22;6470;47.654;7.896;2023-04-24T04:19:12;9.60;99.90
12811;DHT22;6470;47.654;7.896;2023-04-24T04:21:38;10.10;99.90
12811;DHT22;6470;47.654;7.896;2023-04-24T04:24:04;10.10;99.90
12811;DHT22;6470;47.654;7.896;2023-04-24T04:26:31;10.40;99.90
12811;DHT22;6470;47.654;7.896;2023-04-24T04:29:01;9.40;99.90
12811;DHT22;6470;47.654;7.896;2023-04-24T04:31:29;10.10;99.90
12811;DHT22;6470;47.654;7.896;2023-04-24T04:38:49;10.00;99.90
12811;DHT22;6470;47.654;7.896;2023-04-24T04:41:15;9.90;99.90
12811;DHT22;6470;47.654;7.896;2023-04-24T04:43:42;10.00;99.90
12811;DHT22;6470;47.654;7.896;2023-04-24T04:46:08;9.90;99.90
12811;DHT22;6470;47.654;7.896;2023-04-24T04:48:36;10.00;99.90
12811;DHT22;6470;47.654;7.896;2023-04-24T04:51:01;9.90;99.90
12811;DHT22;6470;47.654;7.896;2023-04-24T04:53:27;9.90;99.90
12811;DHT22;6470;47.654;7.896;2023-04-24T04:55:53;9.40;99.90
12811;DHT22;6470;47.654;7.896;2023-04-24T04:58:18;9.60;99.90
12811;DHT22;6470;47.654;7.896;2023-04-24T05:00:44;9.80;99.90
12811;DHT22;6470;47.654;7.896;2023-04-24T05:05:36;9.10;99.90
12811;DHT22;6470;47.654;7.896;2023-04-24T05:08:06;9.20;99.90
12811;DHT22;6470;47.654;7.896;2023-04-24T05:10:32;9.60;99.90
12811;DHT22;6470;47.654;7.896;2023-04-24T05:12:58;9.70;99.90
12811;DHT22;6470;47.654;7.896;2023-04-24T05:15:23;9.70;99.90
12811;DHT22;6470;47.654;7.896;2023-04-24T05:22:42;9.50;99.90
12811;DHT22;6470;47.654;7.896;2023-04-24T05:25:08;9.90;99.90
12811;DHT22;6470;47.654;7.896;2023-04-24T05:27:33;9.60;99.90
12811;DHT22;6470;47.654;7.896;2023-04-24T05:29:59;9.10;99.90
12811;DHT22;6470;47.654;7.896;2023-04-24T05:32:25;9.50;99.90
12811;DHT22;6470;47.654;7.896;2023-04-24T05:34:52;9.70;99.90
12811;DHT22;6470;47.654;7.896;2023-04-24T05:39:44;10.20;99.90
12811;DHT22;6470;47.654;7.896;2023-04-24T05:42:10;9.40;99.90
12811;DHT22;6470;47.654;7.896;2023-04-24T05:47:01;9.60;99.90
12811;DHT22;6470;47.654;7.896;2023-04-24T05:49:27;9.10;99.90
12811;DHT22;6470;47.654;7.896;2023-04-24T05:51:53;8.90;99.90
12811;DHT22;6470;47.654;7.896;2023-04-24T05:56:45;9.30;99.90
12811;DHT22;6470;47.654;7.896;2023-04-24T05:59:10;9.70;99.90
12811;DHT22;6470;47.654;7.896;2023-04-24T06:01:36;9.80;99.90
12811;DHT22;6470;47.654;7.896;2023-04-24T06:04:03;9.80;99.90
12811;DHT22;6470;47.654;7.896;2023-04-24T06:06:29;9.90;99.90
12811;DHT22;6470;47.654;7.896;2023-04-24T06:08:55;9.80;99.90
12811;DHT22;6470;47.654;7.896;2023-04-24T06:11:22;9.40;99.90
12811;DHT22;6470;47.654;7.896;2023-04-24T06:13:48;9.10;99.90
12811;DHT22;6470;47.654;7.896;2023-04-24T06:16:14;10.00;99.90
12811;DHT22;6470;47.654;7.896;2023-04-24T06:18:39;9.70;99.90
12811;DHT22;6470;47.654;7.896;2023-04-24T06:21:05;9.80;99.90
12811;DHT22;6470;47.654;7.896;2023-04-24T06:23:31;9.60;99.90
12811;DHT22;6470;47.654;7.896;2023-04-24T06:25:58;9.50;99.90
12811;DHT22;6470;47.654;7.896;2023-04-24T06:28:24;10.00;99.90
12811;DHT22;6470;47.654;7.896;2023-04-24T06:30:50;10.00;99.90
12811;DHT22;6470;47.654;7.896;2023-04-24T06:33:16;9.80;99.90
12811;DHT22;6470;47.654;7.896;2023-04-24T06:35:42;10.10;99.90
12811;DHT22;6470;47.654;7.896;2023-04-24T06:40:34;9.00;99.90
12811;DHT22;6470;47.654;7.896;2023-04-24T06:45:28;9.30;99.90
12811;DHT22;6470;47.654;7.896;2023-04-24T06:47:54;9.00;99.90
12811;DHT22;6470;47.654;7.896;2023-04-24T06:50:20;8.70;99.90
12811;DHT22;6470;47.654;7.896;2023-04-24T06:55:12;8.70;99.90
12811;DHT22;6470;47.654;7.896;2023-04-24T06:57:38;8.30;99.90
12811;DHT22;6470;47.654;7.896;2023-04-24T07:00:04;8.60;99.90
12811;DHT22;6470;47.654;7.896;2023-04-24T07:07:24;9.80;99.90
12811;DHT22;6470;47.654;7.896;2023-04-24T07:09:49;9.30;99.90
12811;DHT22;6470;47.654;7.896;2023-04-24T07:12:16;9.30;99.90
12811;DHT22;6470;47.654;7.896;2023-04-24T07:14:42;9.40;99.90
12811;DHT22;6470;47.654;7.896;2023-04-24T07:17:08;9.90;99.90
12811;DHT22;6470;47.654;7.896;2023-04-24T07:19:34;9.60;99.90
12811;DHT22;6470;47.654;7.896;2023-04-24T07:22:02;9.60;99.90
12811;DHT22;6470;47.654;7.896;2023-04-24T07:24:29;9.50;99.90
12811;DHT22;6470;47.654;7.896;2023-04-24T07:26:55;9.30;99.90
12811;DHT22;6470;47.654;7.896;2023-04-24T07:29:20;9.00;99.90
12811;DHT22;6470;47.654;7.896;2023-04-24T07:31:46;9.70;99.90
12811;DHT22;6470;47.654;7.896;2023-04-24T07:34:12;9.20;99.90
12811;DHT22;6470;47.654;7.896;2023-04-24T07:36:38;9.20;99.90
12811;DHT22;6470;47.654;7.896;2023-04-24T07:39:04;8.70;99.90
12811;DHT22;6470;47.654;7.896;2023-04-24T07:41:31;9.30;99.90
12811;DHT22;6470;47.654;7.896;2023-04-24T07:43:57;9.80;99.90
12811;DHT22;6470;47.654;7.896;2023-04-24T07:46:23;9.90;99.90
12811;DHT22;6470;47.654;7.896;2023-04-24T07:48:50;10.00;99.90
12811;DHT22;6470;47.654;7.896;2023-04-24T07:51:16;9.90;99.90
12811;DHT22;6470;47.654;7.896;2023-04-24T07:53:43;9.30;99.90
12811;DHT22;6470;47.654;7.896;2023-04-24T07:58:35;10.10;99.90
12811;DHT22;6470;47.654;7.896;2023-04-24T08:01:01;10.10;99.90
12811;DHT22;6470;47.654;7.896;2023-04-24T08:03:27;9.90;99.90
12811;DHT22;6470;47.654;7.896;2023-04-24T08:05:52;10.90;99.90
12811;DHT22;6470;47.654;7.896;2023-04-24T08:08:21;10.30;99.90
12811;DHT22;6470;47.654;7.896;2023-04-24T08:13:13;10.00;99.90
12811;DHT22;6470;47.654;7.896;2023-04-24T08:15:39;11.90;99.90
12811;DHT22;6470;47.654;7.896;2023-04-24T08:18:05;11.80;99.90
12811;DHT22;6470;47.654;7.896;2023-04-24T08:22:56;12.30;99.90
12811;DHT22;6470;47.654;7.896;2023-04-24T08:25:22;11.70;99.90
12811;DHT22;6470;47.654;7.896;2023-04-24T08:27:50;12.00;99.90
12811;DHT22;6470;47.654;7.896;2023-04-24T08:30:16;11.60;99.90
12811;DHT22;6470;47.654;7.896;2023-04-24T08:32:41;11.70;99.90
12811;DHT22;6470;47.654;7.896;2023-04-24T08:35:08;11.60;99.90
12811;DHT22;6470;47.654;7.896;2023-04-24T08:37:34;11.60;99.90
12811;DHT22;6470;47.654;7.896;2023-04-24T08:40:01;11.20;99.90
12811;DHT22;6470;47.654;7.896;2023-04-24T08:42:28;11.20;99.90
12811;DHT22;6470;47.654;7.896;2023-04-24T08:44:55;11.20;99.90
12811;DHT22;6470;47.654;7.896;2023-04-24T08:47:21;11.40;99.90
12811;DHT22;6470;47.654;7.896;2023-04-24T08:49:48;14.80;99.90
12811;DHT22;6470;47.654;7.896;2023-04-24T08:52:15;15.40;99.90
12811;DHT22;6470;47.654;7.896;2023-04-24T08:57:09;15.40;99.90
12811;DHT22;6470;47.654;7.896;2023-04-24T08:59:38;12.00;99.90
12811;DHT22;6470;47.654;7.896;2023-04-24T09:02:04;14.80;99.90
12811;DHT22;6470;47.654;7.896;2023-04-24T09:04:30;10.20;99.90
12811;DHT22;6470;47.654;7.896;2023-04-24T09:06:58;11.50;99.90
12811;DHT22;6470;47.654;7.896;2023-04-24T09:09:24;12.30;99.90
12811;DHT22;6470;47.654;7.896;2023-04-24T09:11:51;11.70;99.90
12811;DHT22;6470;47.654;7.896;2023-04-24T09:14:19;15.10;99.90
12811;DHT22;6470;47.654;7.896;2023-04-24T09:16:46;12.10;99.90
12811;DHT22;6470;47.654;7.896;2023-04-24T09:19:12;12.80;99.90
12811;DHT22;6470;47.654;7.896;2023-04-24T09:24:06;14.80;99.90
12811;DHT22;6470;47.654;7.896;2023-04-24T09:26:35;15.40;99.90
12811;DHT22;6470;47.654;7.896;2023-04-24T09:29:01;15.00;99.90
12811;DHT22;6470;47.654;7.896;2023-04-24T09:31:28;15.30;99.90
12811;DHT22;6470;47.654;7.896;2023-04-24T09:34:04;15.40;99.90
12811;DHT22;6470;47.654;7.896;2023-04-24T09:36:37;14.50;99.90
12811;DHT22;6470;47.654;7.896;2023-04-24T09:39:08;12.10;99.90
12811;DHT22;6470;47.654;7.896;2023-04-24T09:41:50;12.10;99.90
12811;DHT22;6470;47.654;7.896;2023-04-24T09:46:44;9.90;99.90
12811;DHT22;6470;47.654;7.896;2023-04-24T09:49:13;15.20;99.90
12811;DHT22;6470;47.654;7.896;2023-04-24T09:51:39;12.40;99.90
12811;DHT22;6470;47.654;7.896;2023-04-24T09:54:19;12.10;99.90
12811;DHT22;6470;47.654;7.896;2023-04-24T09:56:49;12.70;99.90
12811;DHT22;6470;47.654;7.896;2023-04-24T09:59:17;11.80;99.90
12811;DHT22;6470;47.654;7.896;2023-04-24T10:01:43;10.00;99.90
12811;DHT22;6470;47.654;7.896;2023-04-24T10:04:20;12.20;99.90
12811;DHT22;6470;47.654;7.896;2023-04-24T10:06:47;12.10;99.90
12811;DHT22;6470;47.654;7.896;2023-04-24T10:09:15;12.20;99.90
12811;DHT22;6470;47.654;7.896;2023-04-24T10:11:43;10.60;99.90
12811;DHT22;6470;47.654;7.896;2023-04-24T10:14:13;10.80;99.90
12811;DHT22;6470;47.654;7.896;2023-04-24T10:16:40;12.30;99.90
12811;DHT22;6470;47.654;7.896;2023-04-24T10:19:06;12.50;99.90
12811;DHT22;6470;47.654;7.896;2023-04-24T10:21:32;12.20;99.90
12811;DHT22;6470;47.654;7.896;2023-04-24T10:23:59;12.50;99.90
12811;DHT22;6470;47.654;7.896;2023-04-24T10:26:29;11.90;99.90
12811;DHT22;6470;47.654;7.896;2023-04-24T10:28:57;15.10;99.90
12811;DHT22;6470;47.654;7.896;2023-04-24T10:31:23;15.60;99.90
12811;DHT22;6470;47.654;7.896;2023-04-24T10:33:50;13.20;99.90
12811;DHT22;6470;47.654;7.896;2023-04-24T10:36:18;15.20;99.90
12811;DHT22;6470;47.654;7.896;2023-04-24T10:38:45;15.20;99.90
12811;DHT22;6470;47.654;7.896;2023-04-24T10:41:12;12.40;99.90
12811;DHT22;6470;47.654;7.896;2023-04-24T10:43:45;14.90;99.90
12811;DHT22;6470;47.654;7.896;2023-04-24T10:46:19;15.40;99.90
12811;DHT22;6470;47.654;7.896;2023-04-24T10:48:52;12.50;99.90
12811;DHT22;6470;47.654;7.896;2023-04-24T10:51:22;14.90;99.90
12811;DHT22;6470;47.654;7.896;2023-04-24T10:53:52;15.60;99.90
12811;DHT22;6470;47.654;7.896;2023-04-24T10:56:18;11.90;99.90
12811;DHT22;6470;47.654;7.896;2023-04-24T10:58:50;15.20;99.90
12811;DHT22;6470;47.654;7.896;2023-04-24T11:01:28;15.20;99.90
12811;DHT22;6470;47.654;7.896;2023-04-24T11:03:59;15.60;99.90
12811;DHT22;6470;47.654;7.896;2023-04-24T11:06:32;12.20;99.90
12811;DHT22;6470;47.654;7.896;2023-04-24T11:09:05;12.70;99.90
12811;DHT22;6470;47.654;7.896;2023-04-24T11:11:31;15.10;99.90
12811;DHT22;6470;47.654;7.896;2023-04-24T11:21:58;15.50;99.90
12811;DHT22;6470;47.654;7.896;2023-04-24T11:24:32;14.60;99.90
12811;DHT22;6470;47.654;7.896;2023-04-24T11:30:07;15.10;99.90
12811;DHT22;6470;47.654;7.896;2023-04-24T11:32:42;14.70;99.90
12811;DHT22;6470;47.654;7.896;2023-04-24T11:35:15;15.20;99.90
12811;DHT22;6470;47.654;7.896;2023-04-24T11:37:52;15.40;99.90
12811;DHT22;6470;47.654;7.896;2023-04-24T11:40:20;15.80;99.90
12811;DHT22;6470;47.654;7.896;2023-04-24T11:42:49;14.90;99.90
12811;DHT22;6470;47.654;7.896;2023-04-24T11:45:24;15.70;99.90
12811;DHT22;6470;47.654;7.896;2023-04-24T11:47:50;15.10;99.90
12811;DHT22;6470;47.654;7.896;2023-04-24T11:50:18;14.90;99.90
12811;DHT22;6470;47.654;7.896;2023-04-24T11:52:46;12.90;99.90
12811;DHT22;6470;47.654;7.896;2023-04-24T11:57:48;12.80;99.90
12811;DHT22;6470;47.654;7.896;2023-04-24T12:00:21;12.70;99.90
12811;DHT22;6470;47.654;7.896;2023-04-24T12:02:47;15.30;99.90
12811;DHT22;6470;47.654;7.896;2023-04-24T12:05:20;9.90;99.90
12811;DHT22;6470;47.654;7.896;2023-04-24T12:07:46;12.60;99.90
12811;DHT22;6470;47.654;7.896;2023-04-24T12:10:12;14.90;99.90
12811;DHT22;6470;47.654;7.896;2023-04-24T12:12:38;15.20;99.90
12811;DHT22;6470;47.654;7.896;2023-04-24T12:15:08;11.90;99.90
12811;DHT22;6470;47.654;7.896;2023-04-24T12:17:35;15.10;99.90
12811;DHT22;6470;47.654;7.896;2023-04-24T12:20:06;12.20;99.90
12811;DHT22;6470;47.654;7.896;2023-04-24T12:25:19;15.30;99.90
12811;DHT22;6470;47.654;7.896;2023-04-24T12:27:46;15.50;99.90
12811;DHT22;6470;47.654;7.896;2023-04-24T12:30:16;14.40;99.90
12811;DHT22;6470;47.654;7.896;2023-04-24T12:32:47;14.90;99.90
12811;DHT22;6470;47.654;7.896;2023-04-24T12:35:13;12.50;99.90
12811;DHT22;6470;47.654;7.896;2023-04-24T12:37:42;12.90;99.90
12811;DHT22;6470;47.654;7.896;2023-04-24T12:40:10;12.60;99.90
12811;DHT22;6470;47.654;7.896;2023-04-24T12:42:42;12.40;99.90
12811;DHT22;6470;47.654;7.896;2023-04-24T12:45:08;15.30;99.90
12811;DHT22;6470;47.654;7.896;2023-04-24T12:47:35;11.90;99.90
12811;DHT22;6470;47.654;7.896;2023-04-24T12:50:02;15.20;99.90
12811;DHT22;6470;47.654;7.896;2023-04-24T12:52:29;15.30;99.90
12811;DHT22;6470;47.654;7.896;2023-04-24T12:54:57;14.90;99.90
12811;DHT22;6470;47.654;7.896;2023-04-24T12:57:24;13.40;99.90
12811;DHT22;6470;47.654;7.896;2023-04-24T12:59:50;15.60;99.90
12811;DHT22;6470;47.654;7.896;2023-04-24T13:02:16;15.40;99.90
12811;DHT22;6470;47.654;7.896;2023-04-24T13:04:46;13.10;99.90
12811;DHT22;6470;47.654;7.896;2023-04-24T13:07:13;15.50;99.90
12811;DHT22;6470;47.654;7.896;2023-04-24T13:09:40;15.30;99.90
12811;DHT22;6470;47.654;7.896;2023-04-24T13:12:07;15.60;99.90
12811;DHT22;6470;47.654;7.896;2023-04-24T13:14:33;15.40;99.90
12811;DHT22;6470;47.654;7.896;2023-04-24T13:16:59;15.00;99.90
12811;DHT22;6470;47.654;7.896;2023-04-24T13:19:26;13.40;99.90
12811;DHT22;6470;47.654;7.896;2023-04-24T13:21:52;13.40;99.90
12811;DHT22;6470;47.654;7.896;2023-04-24T13:24:18;15.10;99.90
12811;DHT22;6470;47.654;7.896;2023-04-24T13:26:45;15.60;99.90
12811;DHT22;6470;47.654;7.896;2023-04-24T13:29:11;15.20;99.90
12811;DHT22;6470;47.654;7.896;2023-04-24T13:31:36;10.30;99.90
12811;DHT22;6470;47.654;7.896;2023-04-24T13:34:03;15.90;99.90
12811;DHT22;6470;47.654;7.896;2023-04-24T13:36:29;15.70;99.90
12811;DHT22;6470;47.654;7.896;2023-04-24T13:41:21;15.80;99.90
12811;DHT22;6470;47.654;7.896;2023-04-24T13:43:47;15.40;99.90
12811;DHT22;6470;47.654;7.896;2023-04-24T13:46:13;13.60;99.90
12811;DHT22;6470;47.654;7.896;2023-04-24T13:48:38;15.50;99.90
12811;DHT22;6470;47.654;7.896;2023-04-24T13:51:04;15.30;99.90
12811;DHT22;6470;47.654;7.896;2023-04-24T13:53:30;15.20;99.90
12811;DHT22;6470;47.654;7.896;2023-04-24T13:55:56;15.00;99.90
12811;DHT22;6470;47.654;7.896;2023-04-24T13:58:21;15.30;99.90
12811;DHT22;6470;47.654;7.896;2023-04-24T14:00:47;15.20;99.90
12811;DHT22;6470;47.654;7.896;2023-04-24T14:03:13;15.90;99.90
12811;DHT22;6470;47.654;7.896;2023-04-24T14:05:38;10.40;99.90
12811;DHT22;6470;47.654;7.896;2023-04-24T14:08:04;15.60;99.90
12811;DHT22;6470;47.654;7.896;2023-04-24T14:10:31;15.40;99.90
12811;DHT22;6470;47.654;7.896;2023-04-24T14:12:57;15.40;99.90
12811;DHT22;6470;47.654;7.896;2023-04-24T14:15:23;10.60;99.90
12811;DHT22;6470;47.654;7.896;2023-04-24T14:17:48;15.10;99.90
12811;DHT22;6470;47.654;7.896;2023-04-24T14:20:15;15.90;99.90
12811;DHT22;6470;47.654;7.896;2023-04-24T14:22:41;15.30;99.90
12811;DHT22;6470;47.654;7.896;2023-04-24T14:25:06;15.40;99.90
12811;DHT22;6470;47.654;7.896;2023-04-24T14:27:32;15.20;99.90
12811;DHT22;6470;47.654;7.896;2023-04-24T14:30:00;15.10;99.90
12811;DHT22;6470;47.654;7.896;2023-04-24T14:32:26;15.70;99.90
12811;DHT22;6470;47.654;7.896;2023-04-24T14:34:51;15.60;99.90
12811;DHT22;6470;47.654;7.896;2023-04-24T14:39:43;15.20;99.90
12811;DHT22;6470;47.654;7.896;2023-04-24T14:42:09;10.80;99.90
12811;DHT22;6470;47.654;7.896;2023-04-24T14:44:34;15.60;99.90
12811;DHT22;6470;47.654;7.896;2023-04-24T14:47:00;15.70;99.90
12811;DHT22;6470;47.654;7.896;2023-04-24T14:49:26;14.10;99.90
12811;DHT22;6470;47.654;7.896;2023-04-24T14:51:51;15.30;99.90
12811;DHT22;6470;47.654;7.896;2023-04-24T14:54:17;15.50;99.90
12811;DHT22;6470;47.654;7.896;2023-04-24T14:56:43;15.60;99.90
12811;DHT22;6470;47.654;7.896;2023-04-24T14:59:10;15.30;99.90
12811;DHT22;6470;47.654;7.896;2023-04-24T15:01:35;14.00;99.90
12811;DHT22;6470;47.654;7.896;2023-04-24T15:04:01;13.70;99.90
12811;DHT22;6470;47.654;7.896;2023-04-24T15:06:27;13.50;99.90
12811;DHT22;6470;47.654;7.896;2023-04-24T15:08:52;13.70;99.90
12811;DHT22;6470;47.654;7.896;2023-04-24T15:11:18;15.10;99.90
12811;DHT22;6470;47.654;7.896;2023-04-24T15:13:44;13.90;99.90
12811;DHT22;6470;47.654;7.896;2023-04-24T15:16:12;13.90;99.90
12811;DHT22;6470;47.654;7.896;2023-04-24T15:18:38;15.40;99.90
12811;DHT22;6470;47.654;7.896;2023-04-24T15:21:04;16.00;99.90
12811;DHT22;6470;47.654;7.896;2023-04-24T15:23:30;16.00;99.90
12811;DHT22;6470;47.654;7.896;2023-04-24T15:25:55;11.20;99.90
12811;DHT22;6470;47.654;7.896;2023-04-24T15:30:48;14.10;99.90
12811;DHT22;6470;47.654;7.896;2023-04-24T15:33:13;15.20;99.90
12811;DHT22;6470;47.654;7.896;2023-04-24T15:35:39;15.30;99.90
12811;DHT22;6470;47.654;7.896;2023-04-24T15:38:06;15.60;99.90
12811;DHT22;6470;47.654;7.896;2023-04-24T15:42:57;15.80;99.90
12811;DHT22;6470;47.654;7.896;2023-04-24T15:45:23;15.90;99.90
12811;DHT22;6470;47.654;7.896;2023-04-24T15:47:50;15.80;99.90
12811;DHT22;6470;47.654;7.896;2023-04-24T15:52:44;15.20;99.90
12811;DHT22;6470;47.654;7.896;2023-04-24T15:55:10;15.10;99.90
12811;DHT22;6470;47.654;7.896;2023-04-24T15:57:36;14.90;99.90
12811;DHT22;6470;47.654;7.896;2023-04-24T16:00:02;15.30;99.90
12811;DHT22;6470;47.654;7.896;2023-04-24T16:02:31;15.10;99.90
12811;DHT22;6470;47.654;7.896;2023-04-24T16:04:57;15.20;99.90
12811;DHT22;6470;47.654;7.896;2023-04-24T16:07:23;15.40;99.90
12811;DHT22;6470;47.654;7.896;2023-04-24T16:09:48;15.60;99.90
12811;DHT22;6470;47.654;7.896;2023-04-24T16:14:40;15.90;99.90
12811;DHT22;6470;47.654;7.896;2023-04-24T16:17:06;14.90;99.90
12811;DHT22;6470;47.654;7.896;2023-04-24T16:19:32;13.40;99.90
12811;DHT22;6470;47.654;7.896;2023-04-24T16:21:59;13.50;99.90
12811;DHT22;6470;47.654;7.896;2023-04-24T16:24:25;15.90;99.90
12811;DHT22;6470;47.654;7.896;2023-04-24T16:26:51;15.60;99.90
12811;DHT22;6470;47.654;7.896;2023-04-24T16:29:17;13.50;99.90
12811;DHT22;6470;47.654;7.896;2023-04-24T16:31:43;15.10;99.90
12811;DHT22;6470;47.654;7.896;2023-04-24T16:34:09;14.90;99.90
12811;DHT22;6470;47.654;7.896;2023-04-24T16:36:35;15.30;99.90
12811;DHT22;6470;47.654;7.896;2023-04-24T16:39:02;10.20;99.90
12811;DHT22;6470;47.654;7.896;2023-04-24T16:41:31;15.60;99.90
12811;DHT22;6470;47.654;7.896;2023-04-24T16:43:57;10.30;99.90
12811;DHT22;6470;47.654;7.896;2023-04-24T16:46:23;12.70;99.90
12811;DHT22;6470;47.654;7.896;2023-04-24T16:48:48;15.20;99.90
12811;DHT22;6470;47.654;7.896;2023-04-24T16:51:14;15.60;99.90
12811;DHT22;6470;47.654;7.896;2023-04-24T16:53:40;10.10;99.90
12811;DHT22;6470;47.654;7.896;2023-04-24T16:56:06;12.60;99.90
12811;DHT22;6470;47.654;7.896;2023-04-24T16:58:31;15.30;99.90
12811;DHT22;6470;47.654;7.896;2023-04-24T17:00:57;15.00;99.90
12811;DHT22;6470;47.654;7.896;2023-04-24T17:03:23;12.50;99.90
12811;DHT22;6470;47.654;7.896;2023-04-24T17:05:49;15.50;99.90
12811;DHT22;6470;47.654;7.896;2023-04-24T17:08:15;14.90;99.90
12811;DHT22;6470;47.654;7.896;2023-04-24T17:10:41;15.70;99.90
12811;DHT22;6470;47.654;7.896;2023-04-24T17:13:07;15.40;99.90
12811;DHT22;6470;47.654;7.896;2023-04-24T17:15:33;15.60;99.90
12811;DHT22;6470;47.654;7.896;2023-04-24T17:18:00;14.70;99.90
12811;DHT22;6470;47.654;7.896;2023-04-24T17:20:26;15.20;99.90
12811;DHT22;6470;47.654;7.896;2023-04-24T17:22:52;9.90;99.90
12811;DHT22;6470;47.654;7.896;2023-04-24T17:25:19;14.90;99.90